Airfield :
LOGIN :

Register | Disclaimer

   EN    FR    IT 

 










Legend :    VFR   Marginal VFR   IFR   Intensive IFR   Very Intensive IFR
Visi :
Ceiling :
>= 8 km
>= 3000ft
5 to 8 km
1000 to 3000 ft
1500m to 5 km
500 to 1000 ft
800 to 1500m
200 to 500 ft
< 800m
< 200 ft
Symbols :   Thunderstorms  Fog  Heavy snow  Heavy precipitations  Wind > 20 kt
SIGMETs :     Misc.  Thunderstorms  Icing  Turbulence  Mountain Waves  Volcanic Ashes






- Airport Elevation : 1325 ft
- IATA code : EBU


LFMH - St-Etienne Boutheon

CURRENT METAR :
  • 012200Z AUTO 18008KT CAVOK 06/00 Q1027

EXPIRED METARs :
  • 012130Z AUTO 19006KT CAVOK 03/M01 Q1027
  • 012100Z AUTO 16007KT CAVOK 05/M00 Q1027
  • 012030Z AUTO VRB03KT CAVOK 06/00 Q1027
  • 012000Z AUTO 20004KT 160V240 CAVOK 09/00 Q1026
  • 011930Z AUTO 22003KT CAVOK 09/02 Q1026

TAF TAF LFMH
Valid from the 01 at 18:00 until the 02 at 18:00 UTC


011700Z 0118/0218 15009KT CAVOK
ATIS : +33 4 77 36 17 51



MET'MAP, your aeronautical weather chart ! - Copyright ORBIFLY December 2007 - Disclaimer

ORBIFLY MET'MAP TEAM :

Programming & Development : Alexandra Zaïnal
Concept & original design : Baudouin d'Aumeries
Assistance for programming : Marc-Olivier Méhu
Technical & hardware support : Manuel Goepfert

Contact : metmap@orbifly.com




SOURCES & CREDITS :

   NOAA